sensor_id;sensor_type;location;lat;lon;timestamp;P1;durP1;ratioP1;P2;durP2;ratioP2
35126;SDS011;21300;52.006;5.798;2023-06-10T00:01:15;7.47;;;5.97;;
35126;SDS011;21300;52.006;5.798;2023-06-10T00:03:40;7.10;;;6.15;;
35126;SDS011;21300;52.006;5.798;2023-06-10T00:06:08;9.38;;;6.40;;
35126;SDS011;21300;52.006;5.798;2023-06-10T00:08:33;9.35;;;6.22;;
35126;SDS011;21300;52.006;5.798;2023-06-10T00:10:59;7.93;;;6.30;;
35126;SDS011;21300;52.006;5.798;2023-06-10T00:13:25;6.70;;;6.03;;
35126;SDS011;21300;52.006;5.798;2023-06-10T00:15:51;7.93;;;6.53;;
35126;SDS011;21300;52.006;5.798;2023-06-10T00:18:16;9.52;;;6.57;;
35126;SDS011;21300;52.006;5.798;2023-06-10T00:20:42;8.30;;;6.53;;
35126;SDS011;21300;52.006;5.798;2023-06-10T00:23:08;11.68;;;6.07;;
35126;SDS011;21300;52.006;5.798;2023-06-10T00:25:34;9.15;;;6.25;;
35126;SDS011;21300;52.006;5.798;2023-06-10T00:28:00;7.30;;;6.60;;
35126;SDS011;21300;52.006;5.798;2023-06-10T00:30:25;8.68;;;6.40;;
35126;SDS011;21300;52.006;5.798;2023-06-10T00:32:51;10.77;;;6.50;;
35126;SDS011;21300;52.006;5.798;2023-06-10T00:35:17;7.43;;;6.10;;
35126;SDS011;21300;52.006;5.798;2023-06-10T00:37:42;10.02;;;6.57;;
35126;SDS011;21300;52.006;5.798;2023-06-10T00:40:08;9.27;;;6.80;;
35126;SDS011;21300;52.006;5.798;2023-06-10T00:42:34;7.30;;;6.60;;
35126;SDS011;21300;52.006;5.798;2023-06-10T00:45:00;8.60;;;6.60;;
35126;SDS011;21300;52.006;5.798;2023-06-10T00:47:25;6.35;;;5.75;;
35126;SDS011;21300;52.006;5.798;2023-06-10T00:49:52;6.78;;;6.07;;
35126;SDS011;21300;52.006;5.798;2023-06-10T00:52:18;6.95;;;6.07;;
35126;SDS011;21300;52.006;5.798;2023-06-10T00:54:47;9.07;;;6.47;;
35126;SDS011;21300;52.006;5.798;2023-06-10T00:57:12;8.25;;;5.97;;
35126;SDS011;21300;52.006;5.798;2023-06-10T00:59:39;9.20;;;5.80;;
35126;SDS011;21300;52.006;5.798;2023-06-10T01:02:06;8.30;;;6.85;;
35126;SDS011;21300;52.006;5.798;2023-06-10T01:04:32;10.75;;;6.18;;
35126;SDS011;21300;52.006;5.798;2023-06-10T01:07:17;7.97;;;5.72;;
35126;SDS011;21300;52.006;5.798;2023-06-10T01:12:26;7.93;;;5.97;;
35126;SDS011;21300;52.006;5.798;2023-06-10T01:15:06;7.70;;;5.97;;
35126;SDS011;21300;52.006;5.798;2023-06-10T01:17:33;8.80;;;6.43;;
35126;SDS011;21300;52.006;5.798;2023-06-10T01:20:02;16.30;;;6.22;;
35126;SDS011;21300;52.006;5.798;2023-06-10T01:22:28;8.10;;;5.90;;
35126;SDS011;21300;52.006;5.798;2023-06-10T01:24:57;7.63;;;5.93;;
35126;SDS011;21300;52.006;5.798;2023-06-10T01:27:23;8.48;;;5.93;;
35126;SDS011;21300;52.006;5.798;2023-06-10T01:30:04;10.88;;;6.50;;
35126;SDS011;21300;52.006;5.798;2023-06-10T01:32:43;6.88;;;6.18;;
35126;SDS011;21300;52.006;5.798;2023-06-10T01:35:11;7.07;;;5.75;;
35126;SDS011;21300;52.006;5.798;2023-06-10T01:37:40;8.68;;;6.32;;
35126;SDS011;21300;52.006;5.798;2023-06-10T01:40:10;8.50;;;6.10;;
35126;SDS011;21300;52.006;5.798;2023-06-10T01:42:37;9.63;;;6.10;;
35126;SDS011;21300;52.006;5.798;2023-06-10T01:45:03;10.95;;;5.65;;
35126;SDS011;21300;52.006;5.798;2023-06-10T01:47:29;8.25;;;5.47;;
35126;SDS011;21300;52.006;5.798;2023-06-10T01:49:54;8.45;;;5.75;;
35126;SDS011;21300;52.006;5.798;2023-06-10T01:52:20;8.98;;;5.40;;
35126;SDS011;21300;52.006;5.798;2023-06-10T01:54:46;9.40;;;5.80;;
35126;SDS011;21300;52.006;5.798;2023-06-10T01:57:11;7.88;;;5.47;;
35126;SDS011;21300;52.006;5.798;2023-06-10T01:59:37;9.23;;;5.47;;
35126;SDS011;21300;52.006;5.798;2023-06-10T02:02:03;9.32;;;5.85;;
35126;SDS011;21300;52.006;5.798;2023-06-10T02:04:30;9.00;;;5.50;;
35126;SDS011;21300;52.006;5.798;2023-06-10T02:06:56;7.47;;;5.45;;
35126;SDS011;21300;52.006;5.798;2023-06-10T02:09:21;6.25;;;5.63;;
35126;SDS011;21300;52.006;5.798;2023-06-10T02:11:48;12.07;;;5.80;;
35126;SDS011;21300;52.006;5.798;2023-06-10T02:14:14;9.30;;;5.40;;
35126;SDS011;21300;52.006;5.798;2023-06-10T02:16:39;8.52;;;6.25;;
35126;SDS011;21300;52.006;5.798;2023-06-10T02:19:05;8.00;;;5.88;;
35126;SDS011;21300;52.006;5.798;2023-06-10T02:21:32;10.43;;;5.75;;
35126;SDS011;21300;52.006;5.798;2023-06-10T02:23:59;9.30;;;5.43;;
35126;SDS011;21300;52.006;5.798;2023-06-10T02:26:25;9.32;;;6.05;;
35126;SDS011;21300;52.006;5.798;2023-06-10T02:28:51;8.88;;;5.70;;
35126;SDS011;21300;52.006;5.798;2023-06-10T02:31:17;8.80;;;5.63;;
35126;SDS011;21300;52.006;5.798;2023-06-10T02:33:43;9.02;;;5.80;;
35126;SDS011;21300;52.006;5.798;2023-06-10T02:36:09;8.63;;;5.30;;
35126;SDS011;21300;52.006;5.798;2023-06-10T02:38:38;9.63;;;5.97;;
35126;SDS011;21300;52.006;5.798;2023-06-10T02:41:07;7.55;;;5.75;;
35126;SDS011;21300;52.006;5.798;2023-06-10T02:43:32;10.52;;;5.45;;
35126;SDS011;21300;52.006;5.798;2023-06-10T02:45:58;6.78;;;5.55;;
35126;SDS011;21300;52.006;5.798;2023-06-10T02:48:24;7.15;;;5.93;;
35126;SDS011;21300;52.006;5.798;2023-06-10T02:50:50;5.90;;;5.00;;
35126;SDS011;21300;52.006;5.798;2023-06-10T02:53:15;9.77;;;5.70;;
35126;SDS011;21300;52.006;5.798;2023-06-10T02:55:41;8.23;;;5.70;;
35126;SDS011;21300;52.006;5.798;2023-06-10T02:58:07;7.25;;;5.53;;
35126;SDS011;21300;52.006;5.798;2023-06-10T03:00:33;7.50;;;5.40;;
35126;SDS011;21300;52.006;5.798;2023-06-10T03:02:59;10.05;;;5.75;;
35126;SDS011;21300;52.006;5.798;2023-06-10T03:05:27;10.07;;;5.95;;
35126;SDS011;21300;52.006;5.798;2023-06-10T03:07:53;7.80;;;5.40;;
35126;SDS011;21300;52.006;5.798;2023-06-10T03:10:19;9.25;;;5.68;;
35126;SDS011;21300;52.006;5.798;2023-06-10T03:12:44;8.25;;;5.95;;
35126;SDS011;21300;52.006;5.798;2023-06-10T03:15:10;8.63;;;6.03;;
35126;SDS011;21300;52.006;5.798;2023-06-10T03:17:36;7.45;;;5.85;;
35126;SDS011;21300;52.006;5.798;2023-06-10T03:20:02;10.10;;;5.90;;
35126;SDS011;21300;52.006;5.798;2023-06-10T03:22:30;13.32;;;5.70;;
35126;SDS011;21300;52.006;5.798;2023-06-10T03:24:56;9.13;;;6.35;;
35126;SDS011;21300;52.006;5.798;2023-06-10T03:27:22;10.85;;;5.88;;
35126;SDS011;21300;52.006;5.798;2023-06-10T03:29:47;8.27;;;5.88;;
35126;SDS011;21300;52.006;5.798;2023-06-10T03:32:13;9.82;;;5.53;;
35126;SDS011;21300;52.006;5.798;2023-06-10T03:34:39;10.07;;;5.88;;
35126;SDS011;21300;52.006;5.798;2023-06-10T03:37:05;9.07;;;5.72;;
35126;SDS011;21300;52.006;5.798;2023-06-10T03:39:32;9.38;;;5.53;;
35126;SDS011;21300;52.006;5.798;2023-06-10T03:41:57;7.45;;;5.50;;
35126;SDS011;21300;52.006;5.798;2023-06-10T03:44:24;9.68;;;5.90;;
35126;SDS011;21300;52.006;5.798;2023-06-10T03:46:51;8.80;;;6.15;;
35126;SDS011;21300;52.006;5.798;2023-06-10T03:49:17;7.13;;;5.00;;
35126;SDS011;21300;52.006;5.798;2023-06-10T03:51:42;8.27;;;5.18;;
35126;SDS011;21300;52.006;5.798;2023-06-10T03:54:08;9.32;;;5.55;;
35126;SDS011;21300;52.006;5.798;2023-06-10T03:56:34;14.82;;;6.28;;
35126;SDS011;21300;52.006;5.798;2023-06-10T03:59:00;9.45;;;5.75;;
35126;SDS011;21300;52.006;5.798;2023-06-10T04:01:26;11.25;;;5.82;;
35126;SDS011;21300;52.006;5.798;2023-06-10T04:03:52;8.75;;;5.43;;
35126;SDS011;21300;52.006;5.798;2023-06-10T04:06:19;8.57;;;5.43;;
35126;SDS011;21300;52.006;5.798;2023-06-10T04:08:46;7.05;;;5.15;;
35126;SDS011;21300;52.006;5.798;2023-06-10T04:11:12;7.05;;;4.88;;
35126;SDS011;21300;52.006;5.798;2023-06-10T04:13:38;11.73;;;6.47;;
35126;SDS011;21300;52.006;5.798;2023-06-10T04:16:03;11.18;;;6.05;;
35126;SDS011;21300;52.006;5.798;2023-06-10T04:18:29;9.10;;;6.00;;
35126;SDS011;21300;52.006;5.798;2023-06-10T04:20:55;10.20;;;5.65;;
35126;SDS011;21300;52.006;5.798;2023-06-10T04:23:21;11.05;;;5.75;;
35126;SDS011;21300;52.006;5.798;2023-06-10T04:25:47;9.68;;;6.00;;
35126;SDS011;21300;52.006;5.798;2023-06-10T04:28:13;7.88;;;5.50;;
35126;SDS011;21300;52.006;5.798;2023-06-10T04:30:38;8.85;;;5.32;;
35126;SDS011;21300;52.006;5.798;2023-06-10T04:33:04;9.55;;;5.85;;
35126;SDS011;21300;52.006;5.798;2023-06-10T04:35:31;9.65;;;5.53;;
35126;SDS011;21300;52.006;5.798;2023-06-10T04:37:57;9.05;;;5.57;;
35126;SDS011;21300;52.006;5.798;2023-06-10T04:40:23;10.30;;;5.93;;
35126;SDS011;21300;52.006;5.798;2023-06-10T04:42:48;8.85;;;5.82;;
35126;SDS011;21300;52.006;5.798;2023-06-10T04:45:14;11.80;;;6.13;;
35126;SDS011;21300;52.006;5.798;2023-06-10T04:47:40;10.55;;;6.00;;
35126;SDS011;21300;52.006;5.798;2023-06-10T04:50:05;12.15;;;6.45;;
35126;SDS011;21300;52.006;5.798;2023-06-10T04:52:31;11.60;;;5.88;;
35126;SDS011;21300;52.006;5.798;2023-06-10T04:54:58;9.52;;;5.80;;
35126;SDS011;21300;52.006;5.798;2023-06-10T04:57:24;10.20;;;6.80;;
35126;SDS011;21300;52.006;5.798;2023-06-10T04:59:51;9.35;;;6.15;;
35126;SDS011;21300;52.006;5.798;2023-06-10T05:02:17;9.18;;;5.38;;
35126;SDS011;21300;52.006;5.798;2023-06-10T05:04:42;9.00;;;5.97;;
35126;SDS011;21300;52.006;5.798;2023-06-10T05:07:26;11.25;;;6.10;;
35126;SDS011;21300;52.006;5.798;2023-06-10T05:09:52;8.05;;;5.72;;
35126;SDS011;21300;52.006;5.798;2023-06-10T05:12:17;11.60;;;6.10;;
35126;SDS011;21300;52.006;5.798;2023-06-10T05:14:43;10.13;;;6.53;;
35126;SDS011;21300;52.006;5.798;2023-06-10T05:17:09;10.75;;;5.95;;
35126;SDS011;21300;52.006;5.798;2023-06-10T05:19:35;10.70;;;5.53;;
35126;SDS011;21300;52.006;5.798;2023-06-10T05:22:02;11.20;;;5.95;;
35126;SDS011;21300;52.006;5.798;2023-06-10T05:24:28;10.35;;;6.05;;
35126;SDS011;21300;52.006;5.798;2023-06-10T05:26:53;8.45;;;5.63;;
35126;SDS011;21300;52.006;5.798;2023-06-10T05:29:19;10.57;;;5.82;;
35126;SDS011;21300;52.006;5.798;2023-06-10T05:31:45;7.75;;;5.18;;
35126;SDS011;21300;52.006;5.798;2023-06-10T05:34:10;13.38;;;6.38;;
35126;SDS011;21300;52.006;5.798;2023-06-10T05:36:36;8.57;;;6.03;;
35126;SDS011;21300;52.006;5.798;2023-06-10T05:39:02;10.70;;;5.45;;
35126;SDS011;21300;52.006;5.798;2023-06-10T05:41:28;10.70;;;5.43;;
35126;SDS011;21300;52.006;5.798;2023-06-10T05:43:53;9.38;;;5.32;;
35126;SDS011;21300;52.006;5.798;2023-06-10T05:46:19;9.60;;;6.20;;
35126;SDS011;21300;52.006;5.798;2023-06-10T05:48:45;8.32;;;5.82;;
35126;SDS011;21300;52.006;5.798;2023-06-10T05:51:11;8.90;;;5.57;;
35126;SDS011;21300;52.006;5.798;2023-06-10T05:53:36;12.85;;;5.88;;
35126;SDS011;21300;52.006;5.798;2023-06-10T05:56:03;8.60;;;5.75;;
35126;SDS011;21300;52.006;5.798;2023-06-10T05:58:29;11.30;;;6.53;;
35126;SDS011;21300;52.006;5.798;2023-06-10T06:00:54;11.85;;;6.22;;
35126;SDS011;21300;52.006;5.798;2023-06-10T06:03:20;7.47;;;5.35;;
35126;SDS011;21300;52.006;5.798;2023-06-10T06:05:45;9.52;;;5.65;;
35126;SDS011;21300;52.006;5.798;2023-06-10T06:08:11;6.85;;;5.35;;
35126;SDS011;21300;52.006;5.798;2023-06-10T06:10:38;8.40;;;5.75;;
35126;SDS011;21300;52.006;5.798;2023-06-10T06:13:04;7.25;;;5.60;;
35126;SDS011;21300;52.006;5.798;2023-06-10T06:15:29;9.23;;;5.68;;
35126;SDS011;21300;52.006;5.798;2023-06-10T06:17:55;9.10;;;5.68;;
35126;SDS011;21300;52.006;5.798;2023-06-10T06:20:21;9.25;;;5.40;;
35126;SDS011;21300;52.006;5.798;2023-06-10T06:22:47;10.23;;;5.78;;
35126;SDS011;21300;52.006;5.798;2023-06-10T06:25:12;9.80;;;5.50;;
35126;SDS011;21300;52.006;5.798;2023-06-10T06:27:38;9.50;;;5.35;;
35126;SDS011;21300;52.006;5.798;2023-06-10T06:30:04;8.73;;;5.65;;
35126;SDS011;21300;52.006;5.798;2023-06-10T06:32:30;9.82;;;5.15;;
35126;SDS011;21300;52.006;5.798;2023-06-10T06:34:56;7.50;;;5.05;;
35126;SDS011;21300;52.006;5.798;2023-06-10T06:37:21;9.85;;;5.50;;
35126;SDS011;21300;52.006;5.798;2023-06-10T06:39:49;10.35;;;5.43;;
35126;SDS011;21300;52.006;5.798;2023-06-10T06:42:18;9.07;;;4.88;;
35126;SDS011;21300;52.006;5.798;2023-06-10T06:44:45;7.07;;;5.60;;
35126;SDS011;21300;52.006;5.798;2023-06-10T06:47:12;8.70;;;5.10;;
35126;SDS011;21300;52.006;5.798;2023-06-10T06:49:38;8.38;;;4.57;;
35126;SDS011;21300;52.006;5.798;2023-06-10T06:52:03;7.38;;;5.40;;
35126;SDS011;21300;52.006;5.798;2023-06-10T06:54:29;8.00;;;4.53;;
35126;SDS011;21300;52.006;5.798;2023-06-10T06:56:55;7.25;;;5.15;;
35126;SDS011;21300;52.006;5.798;2023-06-10T06:59:21;7.90;;;5.00;;
35126;SDS011;21300;52.006;5.798;2023-06-10T07:01:46;7.03;;;5.00;;
35126;SDS011;21300;52.006;5.798;2023-06-10T07:04:14;8.50;;;5.20;;
35126;SDS011;21300;52.006;5.798;2023-06-10T07:06:40;7.25;;;4.78;;
35126;SDS011;21300;52.006;5.798;2023-06-10T07:09:05;12.07;;;5.68;;
35126;SDS011;21300;52.006;5.798;2023-06-10T07:11:32;7.63;;;5.57;;
35126;SDS011;21300;52.006;5.798;2023-06-10T07:13:58;13.07;;;5.20;;
35126;SDS011;21300;52.006;5.798;2023-06-10T07:16:23;8.98;;;5.82;;
35126;SDS011;21300;52.006;5.798;2023-06-10T07:18:49;6.95;;;5.10;;
35126;SDS011;21300;52.006;5.798;2023-06-10T07:21:14;7.47;;;4.57;;
35126;SDS011;21300;52.006;5.798;2023-06-10T07:23:43;7.97;;;5.03;;
35126;SDS011;21300;52.006;5.798;2023-06-10T07:26:09;7.20;;;4.03;;
35126;SDS011;21300;52.006;5.798;2023-06-10T07:28:39;8.63;;;4.50;;
35126;SDS011;21300;52.006;5.798;2023-06-10T07:31:05;7.18;;;4.70;;
35126;SDS011;21300;52.006;5.798;2023-06-10T07:33:30;8.15;;;4.88;;
35126;SDS011;21300;52.006;5.798;2023-06-10T07:35:56;8.82;;;4.82;;
35126;SDS011;21300;52.006;5.798;2023-06-10T07:38:21;6.80;;;5.03;;
35126;SDS011;21300;52.006;5.798;2023-06-10T07:40:47;8.73;;;5.45;;
35126;SDS011;21300;52.006;5.798;2023-06-10T07:43:13;7.32;;;4.60;;
35126;SDS011;21300;52.006;5.798;2023-06-10T07:45:41;9.63;;;4.75;;
35126;SDS011;21300;52.006;5.798;2023-06-10T07:48:08;7.60;;;4.45;;
35126;SDS011;21300;52.006;5.798;2023-06-10T07:50:34;6.80;;;4.13;;
35126;SDS011;21300;52.006;5.798;2023-06-10T07:52:59;7.95;;;4.80;;
35126;SDS011;21300;52.006;5.798;2023-06-10T07:55:25;5.10;;;4.45;;
35126;SDS011;21300;52.006;5.798;2023-06-10T07:57:51;6.20;;;4.72;;
35126;SDS011;21300;52.006;5.798;2023-06-10T08:00:17;6.03;;;4.70;;
35126;SDS011;21300;52.006;5.798;2023-06-10T08:02:43;8.60;;;4.90;;
35126;SDS011;21300;52.006;5.798;2023-06-10T08:05:09;7.82;;;4.88;;
35126;SDS011;21300;52.006;5.798;2023-06-10T08:07:35;6.25;;;4.50;;
35126;SDS011;21300;52.006;5.798;2023-06-10T08:10:01;7.18;;;4.32;;
35126;SDS011;21300;52.006;5.798;2023-06-10T08:12:27;6.60;;;4.70;;
35126;SDS011;21300;52.006;5.798;2023-06-10T08:14:53;9.05;;;5.00;;
35126;SDS011;21300;52.006;5.798;2023-06-10T08:17:20;7.20;;;4.80;;
35126;SDS011;21300;52.006;5.798;2023-06-10T08:19:45;7.07;;;4.63;;
35126;SDS011;21300;52.006;5.798;2023-06-10T08:22:11;10.60;;;4.88;;
35126;SDS011;21300;52.006;5.798;2023-06-10T08:24:37;9.23;;;5.05;;
35126;SDS011;21300;52.006;5.798;2023-06-10T08:27:02;7.15;;;4.40;;
35126;SDS011;21300;52.006;5.798;2023-06-10T08:29:28;8.27;;;5.00;;
35126;SDS011;21300;52.006;5.798;2023-06-10T08:31:56;7.47;;;3.83;;
35126;SDS011;21300;52.006;5.798;2023-06-10T08:34:22;6.90;;;4.68;;
35126;SDS011;21300;52.006;5.798;2023-06-10T08:36:47;5.10;;;4.30;;
35126;SDS011;21300;52.006;5.798;2023-06-10T08:39:18;8.50;;;4.80;;
35126;SDS011;21300;52.006;5.798;2023-06-10T08:41:44;8.13;;;4.70;;
35126;SDS011;21300;52.006;5.798;2023-06-10T08:44:43;6.43;;;4.50;;
35126;SDS011;21300;52.006;5.798;2023-06-10T08:47:15;6.28;;;4.20;;
35126;SDS011;21300;52.006;5.798;2023-06-10T08:49:43;6.82;;;4.55;;
35126;SDS011;21300;52.006;5.798;2023-06-10T08:52:16;5.65;;;4.25;;
35126;SDS011;21300;52.006;5.798;2023-06-10T08:54:45;8.40;;;4.20;;
35126;SDS011;21300;52.006;5.798;2023-06-10T08:57:21;6.55;;;4.68;;
35126;SDS011;21300;52.006;5.798;2023-06-10T08:59:48;10.15;;;4.72;;
35126;SDS011;21300;52.006;5.798;2023-06-10T09:02:15;8.00;;;4.63;;
35126;SDS011;21300;52.006;5.798;2023-06-10T09:04:44;6.47;;;4.80;;
35126;SDS011;21300;52.006;5.798;2023-06-10T09:07:11;6.03;;;4.35;;
35126;SDS011;21300;52.006;5.798;2023-06-10T09:09:39;6.78;;;4.60;;
35126;SDS011;21300;52.006;5.798;2023-06-10T09:12:06;8.32;;;4.50;;
35126;SDS011;21300;52.006;5.798;2023-06-10T09:14:32;6.45;;;4.38;;
35126;SDS011;21300;52.006;5.798;2023-06-10T09:16:58;9.77;;;4.35;;
35126;SDS011;21300;52.006;5.798;2023-06-10T09:19:25;5.80;;;4.30;;
35126;SDS011;21300;52.006;5.798;2023-06-10T09:21:51;6.85;;;4.00;;
35126;SDS011;21300;52.006;5.798;2023-06-10T09:24:17;7.00;;;4.72;;
35126;SDS011;21300;52.006;5.798;2023-06-10T09:26:43;7.53;;;4.60;;
35126;SDS011;21300;52.006;5.798;2023-06-10T09:29:10;9.07;;;4.78;;
35126;SDS011;21300;52.006;5.798;2023-06-10T09:31:38;7.93;;;4.28;;
35126;SDS011;21300;52.006;5.798;2023-06-10T09:34:07;8.40;;;4.43;;
35126;SDS011;21300;52.006;5.798;2023-06-10T09:36:34;5.20;;;4.10;;
35126;SDS011;21300;52.006;5.798;2023-06-10T09:39:01;8.13;;;4.88;;
35126;SDS011;21300;52.006;5.798;2023-06-10T09:41:34;6.68;;;4.80;;
35126;SDS011;21300;52.006;5.798;2023-06-10T09:44:08;8.02;;;4.60;;
35126;SDS011;21300;52.006;5.798;2023-06-10T09:46:38;7.95;;;4.90;;
35126;SDS011;21300;52.006;5.798;2023-06-10T09:49:04;6.10;;;4.65;;
35126;SDS011;21300;52.006;5.798;2023-06-10T09:51:29;6.05;;;4.00;;
35126;SDS011;21300;52.006;5.798;2023-06-10T09:53:55;6.57;;;4.20;;
35126;SDS011;21300;52.006;5.798;2023-06-10T09:56:20;10.32;;;4.82;;
35126;SDS011;21300;52.006;5.798;2023-06-10T09:58:49;9.35;;;4.57;;
35126;SDS011;21300;52.006;5.798;2023-06-10T10:01:18;9.00;;;4.28;;
35126;SDS011;21300;52.006;5.798;2023-06-10T10:03:47;7.68;;;4.60;;
35126;SDS011;21300;52.006;5.798;2023-06-10T10:06:15;6.05;;;4.43;;
35126;SDS011;21300;52.006;5.798;2023-06-10T10:08:42;6.60;;;3.97;;
35126;SDS011;21300;52.006;5.798;2023-06-10T10:11:08;7.95;;;4.22;;
35126;SDS011;21300;52.006;5.798;2023-06-10T10:13:35;6.57;;;4.50;;
35126;SDS011;21300;52.006;5.798;2023-06-10T10:16:04;8.63;;;4.47;;
35126;SDS011;21300;52.006;5.798;2023-06-10T10:18:35;7.40;;;3.90;;
35126;SDS011;21300;52.006;5.798;2023-06-10T10:21:08;6.63;;;4.63;;
35126;SDS011;21300;52.006;5.798;2023-06-10T10:23:40;6.03;;;4.50;;
35126;SDS011;21300;52.006;5.798;2023-06-10T10:26:17;7.07;;;3.88;;
35126;SDS011;21300;52.006;5.798;2023-06-10T10:28:48;7.00;;;3.47;;
35126;SDS011;21300;52.006;5.798;2023-06-10T10:31:22;6.07;;;4.00;;
35126;SDS011;21300;52.006;5.798;2023-06-10T10:33:55;6.65;;;4.10;;
35126;SDS011;21300;52.006;5.798;2023-06-10T10:36:24;5.43;;;3.90;;
35126;SDS011;21300;52.006;5.798;2023-06-10T10:38:50;7.82;;;4.15;;
35126;SDS011;21300;52.006;5.798;2023-06-10T10:41:17;5.00;;;3.90;;
35126;SDS011;21300;52.006;5.798;2023-06-10T10:43:44;6.25;;;4.03;;
35126;SDS011;21300;52.006;5.798;2023-06-10T10:46:12;6.10;;;3.80;;
35126;SDS011;21300;52.006;5.798;2023-06-10T10:48:39;4.82;;;3.70;;
35126;SDS011;21300;52.006;5.798;2023-06-10T10:51:08;6.53;;;3.83;;
35126;SDS011;21300;52.006;5.798;2023-06-10T10:53:38;5.43;;;3.72;;
35126;SDS011;21300;52.006;5.798;2023-06-10T10:56:09;6.28;;;3.80;;
35126;SDS011;21300;52.006;5.798;2023-06-10T10:58:39;4.95;;;3.95;;
35126;SDS011;21300;52.006;5.798;2023-06-10T11:01:14;4.20;;;3.47;;
35126;SDS011;21300;52.006;5.798;2023-06-10T11:03:43;6.05;;;3.70;;
35126;SDS011;21300;52.006;5.798;2023-06-10T11:06:13;5.07;;;3.85;;
35126;SDS011;21300;52.006;5.798;2023-06-10T11:11:24;7.82;;;3.67;;
35126;SDS011;21300;52.006;5.798;2023-06-10T11:16:29;5.93;;;4.25;;
35126;SDS011;21300;52.006;5.798;2023-06-10T11:18:55;5.18;;;4.00;;
35126;SDS011;21300;52.006;5.798;2023-06-10T11:21:24;5.07;;;3.85;;
35126;SDS011;21300;52.006;5.798;2023-06-10T11:23:50;6.53;;;4.00;;
35126;SDS011;21300;52.006;5.798;2023-06-10T11:31:22;6.50;;;3.88;;
35126;SDS011;21300;52.006;5.798;2023-06-10T11:34:02;5.32;;;4.13;;
35126;SDS011;21300;52.006;5.798;2023-06-10T11:36:30;6.20;;;4.40;;
35126;SDS011;21300;52.006;5.798;2023-06-10T11:39:02;7.25;;;4.10;;
35126;SDS011;21300;52.006;5.798;2023-06-10T11:41:30;4.95;;;4.10;;
35126;SDS011;21300;52.006;5.798;2023-06-10T11:44:00;4.72;;;3.80;;
35126;SDS011;21300;52.006;5.798;2023-06-10T11:46:28;5.90;;;4.05;;
35126;SDS011;21300;52.006;5.798;2023-06-10T11:48:55;5.78;;;4.75;;
35126;SDS011;21300;52.006;5.798;2023-06-10T11:51:24;6.30;;;4.32;;
35126;SDS011;21300;52.006;5.798;2023-06-10T11:53:50;6.68;;;3.80;;
35126;SDS011;21300;52.006;5.798;2023-06-10T11:56:27;7.38;;;4.20;;
35126;SDS011;21300;52.006;5.798;2023-06-10T12:01:22;6.20;;;4.30;;
35126;SDS011;21300;52.006;5.798;2023-06-10T12:03:59;6.90;;;4.30;;
35126;SDS011;21300;52.006;5.798;2023-06-10T12:06:28;5.70;;;4.22;;
35126;SDS011;21300;52.006;5.798;2023-06-10T12:11:51;8.02;;;4.35;;
35126;SDS011;21300;52.006;5.798;2023-06-10T12:14:49;6.40;;;4.25;;
35126;SDS011;21300;52.006;5.798;2023-06-10T12:19:56;5.18;;;3.65;;
35126;SDS011;21300;52.006;5.798;2023-06-10T12:22:22;9.50;;;5.00;;
35126;SDS011;21300;52.006;5.798;2023-06-10T12:25:02;8.70;;;4.78;;
35126;SDS011;21300;52.006;5.798;2023-06-10T12:27:29;5.28;;;4.22;;
35126;SDS011;21300;52.006;5.798;2023-06-10T12:29:56;5.95;;;4.35;;
35126;SDS011;21300;52.006;5.798;2023-06-10T12:35:06;5.55;;;4.32;;
35126;SDS011;21300;52.006;5.798;2023-06-10T12:37:33;5.45;;;4.10;;
35126;SDS011;21300;52.006;5.798;2023-06-10T12:40:00;5.50;;;4.45;;
35126;SDS011;21300;52.006;5.798;2023-06-10T12:42:28;9.20;;;4.80;;
35126;SDS011;21300;52.006;5.798;2023-06-10T12:44:54;6.10;;;5.10;;
35126;SDS011;21300;52.006;5.798;2023-06-10T12:47:28;6.00;;;4.32;;
35126;SDS011;21300;52.006;5.798;2023-06-10T12:49:59;5.75;;;4.63;;
35126;SDS011;21300;52.006;5.798;2023-06-10T12:52:26;6.90;;;4.60;;
35126;SDS011;21300;52.006;5.798;2023-06-10T12:54:52;7.90;;;4.30;;
35126;SDS011;21300;52.006;5.798;2023-06-10T12:57:19;11.50;;;4.78;;
35126;SDS011;21300;52.006;5.798;2023-06-10T12:59:44;7.05;;;4.57;;
35126;SDS011;21300;52.006;5.798;2023-06-10T13:02:15;7.22;;;4.72;;
35126;SDS011;21300;52.006;5.798;2023-06-10T13:04:45;6.82;;;4.40;;
35126;SDS011;21300;52.006;5.798;2023-06-10T13:07:11;8.05;;;4.75;;
35126;SDS011;21300;52.006;5.798;2023-06-10T13:09:36;8.05;;;4.57;;
35126;SDS011;21300;52.006;5.798;2023-06-10T13:12:02;5.88;;;4.75;;
35126;SDS011;21300;52.006;5.798;2023-06-10T13:14:28;6.03;;;4.65;;
35126;SDS011;21300;52.006;5.798;2023-06-10T13:16:54;7.88;;;5.13;;
35126;SDS011;21300;52.006;5.798;2023-06-10T13:19:20;5.70;;;4.60;;
35126;SDS011;21300;52.006;5.798;2023-06-10T13:21:49;5.88;;;4.40;;
35126;SDS011;21300;52.006;5.798;2023-06-10T13:24:14;7.60;;;4.50;;
35126;SDS011;21300;52.006;5.798;2023-06-10T13:26:40;5.85;;;4.40;;
35126;SDS011;21300;52.006;5.798;2023-06-10T13:29:06;5.70;;;4.30;;
35126;SDS011;21300;52.006;5.798;2023-06-10T13:31:32;7.38;;;4.55;;
35126;SDS011;21300;52.006;5.798;2023-06-10T13:33:58;6.43;;;4.72;;
35126;SDS011;21300;52.006;5.798;2023-06-10T13:36:24;5.82;;;4.43;;
35126;SDS011;21300;52.006;5.798;2023-06-10T13:38:50;6.03;;;4.72;;
35126;SDS011;21300;52.006;5.798;2023-06-10T13:41:15;7.80;;;4.95;;
35126;SDS011;21300;52.006;5.798;2023-06-10T13:43:41;6.88;;;4.57;;
35126;SDS011;21300;52.006;5.798;2023-06-10T13:46:07;5.68;;;4.63;;
35126;SDS011;21300;52.006;5.798;2023-06-10T13:48:32;8.00;;;4.75;;
35126;SDS011;21300;52.006;5.798;2023-06-10T13:50:58;6.43;;;4.15;;
35126;SDS011;21300;52.006;5.798;2023-06-10T13:53:25;6.00;;;4.70;;
35126;SDS011;21300;52.006;5.798;2023-06-10T13:55:50;5.90;;;4.28;;
35126;SDS011;21300;52.006;5.798;2023-06-10T13:58:16;7.07;;;4.60;;
35126;SDS011;21300;52.006;5.798;2023-06-10T14:00:42;6.63;;;4.65;;
35126;SDS011;21300;52.006;5.798;2023-06-10T14:03:07;6.93;;;4.55;;
35126;SDS011;21300;52.006;5.798;2023-06-10T14:05:33;7.35;;;4.93;;
35126;SDS011;21300;52.006;5.798;2023-06-10T14:07:59;5.80;;;4.55;;
35126;SDS011;21300;52.006;5.798;2023-06-10T14:10:25;5.45;;;4.47;;
35126;SDS011;21300;52.006;5.798;2023-06-10T14:12:50;4.80;;;4.30;;
35126;SDS011;21300;52.006;5.798;2023-06-10T14:15:16;7.45;;;4.85;;
35126;SDS011;21300;52.006;5.798;2023-06-10T14:17:42;6.68;;;4.47;;
35126;SDS011;21300;52.006;5.798;2023-06-10T14:20:08;8.48;;;4.47;;
35126;SDS011;21300;52.006;5.798;2023-06-10T14:22:33;5.15;;;4.20;;
35126;SDS011;21300;52.006;5.798;2023-06-10T14:24:59;6.38;;;4.18;;
35126;SDS011;21300;52.006;5.798;2023-06-10T14:27:25;6.55;;;4.50;;
35126;SDS011;21300;52.006;5.798;2023-06-10T14:29:50;5.57;;;4.30;;
35126;SDS011;21300;52.006;5.798;2023-06-10T14:32:16;4.55;;;4.15;;
35126;SDS011;21300;52.006;5.798;2023-06-10T14:34:41;5.05;;;4.55;;
35126;SDS011;21300;52.006;5.798;2023-06-10T14:37:09;5.47;;;3.60;;
35126;SDS011;21300;52.006;5.798;2023-06-10T14:39:35;6.00;;;3.63;;
35126;SDS011;21300;52.006;5.798;2023-06-10T14:42:01;8.65;;;4.25;;
35126;SDS011;21300;52.006;5.798;2023-06-10T14:44:27;7.88;;;3.90;;
35126;SDS011;21300;52.006;5.798;2023-06-10T14:46:52;7.30;;;4.47;;
35126;SDS011;21300;52.006;5.798;2023-06-10T14:49:18;7.13;;;4.38;;
35126;SDS011;21300;52.006;5.798;2023-06-10T14:51:43;7.75;;;4.70;;
35126;SDS011;21300;52.006;5.798;2023-06-10T14:54:09;4.82;;;4.15;;
35126;SDS011;21300;52.006;5.798;2023-06-10T14:56:35;5.15;;;4.13;;
35126;SDS011;21300;52.006;5.798;2023-06-10T14:59:01;6.72;;;4.43;;
35126;SDS011;21300;52.006;5.798;2023-06-10T15:01:26;5.25;;;4.00;;
35126;SDS011;21300;52.006;5.798;2023-06-10T15:03:52;5.80;;;3.80;;
35126;SDS011;21300;52.006;5.798;2023-06-10T15:06:17;5.18;;;3.80;;
35126;SDS011;21300;52.006;5.798;2023-06-10T15:08:46;6.25;;;4.25;;